createdAt,value
2019-04-22T00:00:55.707Z,102060.34
2019-04-22T00:03:27.396Z,102073.14
2019-04-22T00:06:12.948Z,102067.46
2019-04-22T00:08:42.842Z,102067.48
2019-04-22T00:11:14.645Z,102066.63
2019-04-22T00:13:43.891Z,102017.39
2019-04-22T00:16:01.091Z,102063.66
2019-04-22T00:18:46.822Z,102061.48
2019-04-22T00:21:04.832Z,102061.95
2019-04-22T00:23:23.477Z,102054.92
2019-04-22T00:26:01.900Z,102049.66
2019-04-22T00:28:24.838Z,102050.13
2019-04-22T00:30:56.038Z,102055.47
2019-04-22T00:33:25.055Z,102061.27
2019-04-22T00:35:52.632Z,102057.33
2019-04-22T00:40:44.736Z,102065.29
2019-04-22T00:43:13.657Z,102069.78
2019-04-22T00:45:44.780Z,102073.77
2019-04-22T00:48:17.828Z,102072.91
2019-04-22T00:50:37.467Z,102071.64
2019-04-22T00:53:11.628Z,102071.28
2019-04-22T00:55:32.600Z,102072.16
2019-04-22T00:58:02.771Z,102059.41
2019-04-22T01:00:31.417Z,102063.40
2019-04-22T01:03:07.504Z,102055.98
2019-04-22T01:05:30.234Z,102049.42
2019-04-22T01:08:04.053Z,102049.86
2019-04-22T01:10:27.075Z,102055.17
2019-04-22T01:12:54.600Z,102064.02
2019-04-22T01:15:24.724Z,102055.70
2019-04-22T01:17:45.455Z,102064.95
2019-04-22T01:20:25.674Z,102059.69
2019-04-22T01:22:34.594Z,102067.17
2019-04-22T01:25:02.231Z,102063.69
2019-04-22T01:27:26.634Z,102058.83
2019-04-22T01:29:52.378Z,102049.63
2019-04-22T01:32:17.551Z,102050.09
2019-04-22T01:34:51.550Z,102056.34
2019-04-22T01:37:24.006Z,102062.97
2019-04-22T01:39:57.036Z,102060.79
2019-04-22T01:42:24.467Z,102059.10
2019-04-22T01:44:50.984Z,102067.93
2019-04-22T01:47:29.923Z,102017.80
2019-04-22T01:49:46.159Z,102070.67
2019-04-22T01:52:15.513Z,102074.68
2019-04-22T01:57:09.925Z,102068.61
2019-04-22T01:59:31.657Z,102068.66
2019-04-22T02:02:14.059Z,102075.29
2019-04-22T02:04:47.626Z,102079.27
2019-04-22T02:09:38.108Z,102087.70
2019-04-22T02:12:04.685Z,102092.13
2019-04-22T02:14:34.378Z,102100.98
2019-04-22T02:16:58.028Z,102100.55
2019-04-22T02:21:48.857Z,102084.39
2019-04-22T02:24:30.158Z,102082.67
2019-04-22T02:27:00.397Z,102090.17
2019-04-22T02:29:15.091Z,102085.81
2019-04-22T02:34:21.661Z,102096.88
2019-04-22T02:41:50.323Z,102095.31
2019-04-22T02:46:50.001Z,102101.06
2019-04-22T02:49:11.661Z,102107.69
2019-04-22T02:54:21.889Z,102123.98
2019-04-22T02:56:33.950Z,102118.72
2019-04-22T02:59:12.447Z,102116.98
2019-04-22T03:01:39.821Z,102119.22
2019-04-22T03:04:03.316Z,102122.73
2019-04-22T03:06:24.189Z,102117.05
2019-04-22T03:08:51.704Z,102117.07
2019-04-22T03:13:51.117Z,102120.16
2019-04-22T03:18:57.227Z,102122.84
2019-04-22T03:21:07.428Z,102122.85
2019-04-22T03:28:29.279Z,102126.42
2019-04-22T03:36:05.962Z,102117.64
2019-04-22T03:38:41.607Z,102122.91
2019-04-22T03:41:05.491Z,102125.14
2019-04-22T03:43:24.020Z,102118.98
2019-04-22T03:45:37.913Z,102116.77
2019-04-22T03:48:36.151Z,102118.56
2019-04-22T03:50:36.842Z,102125.14
2019-04-22T03:58:01.774Z,102135.31
2019-04-22T04:05:45.578Z,102143.73
2019-04-22T04:08:12.110Z,102142.42
2019-04-22T04:10:37.656Z,102142.42
2019-04-22T04:13:02.934Z,102146.88
2019-04-22T04:15:28.948Z,102156.98
2019-04-22T04:18:03.309Z,102164.02
2019-04-22T04:20:28.719Z,102170.17
2019-04-22T04:35:32.869Z,102196.34
2019-04-22T04:37:46.806Z,102192.89
2019-04-22T04:40:12.501Z,102195.55
2019-04-22T04:42:41.978Z,102192.01
2019-04-22T04:47:43.566Z,102184.93
2019-04-22T04:49:57.023Z,102183.59
2019-04-22T04:52:42.420Z,102193.25
2019-04-22T04:54:59.373Z,102201.55
2019-04-22T05:00:26.050Z,102204.14
2019-04-22T05:02:19.814Z,102202.80
2019-04-22T05:07:18.645Z,102211.55
2019-04-22T05:09:32.674Z,102208.00
2019-04-22T05:12:19.007Z,102215.02
2019-04-22T05:14:28.713Z,102210.56
2019-04-22T05:17:10.956Z,102209.21
2019-04-22T05:19:25.650Z,102210.48
2019-04-22T05:22:00.337Z,102206.95
2019-04-22T05:24:36.695Z,102207.38
2019-04-22T05:29:17.269Z,102207.78
2019-04-22T05:31:43.539Z,102208.64
2019-04-22T05:34:14.427Z,102213.05
2019-04-22T05:36:40.336Z,102214.83
2019-04-22T05:39:09.878Z,102222.23
2019-04-22T05:41:36.382Z,102224.85
2019-04-22T05:44:03.273Z,102224.41
2019-04-22T05:46:29.302Z,102218.23
2019-04-22T05:48:59.740Z,102214.73
2019-04-22T05:51:31.514Z,102217.77
2019-04-22T05:53:57.459Z,102216.89
2019-04-22T05:56:30.875Z,102218.66
2019-04-22T05:58:51.478Z,102220.40
2019-04-22T06:03:50.892Z,102204.96
2019-04-22T06:06:15.069Z,102212.37
2019-04-22T06:08:45.586Z,102216.75
2019-04-22T06:11:17.131Z,102226.80
2019-04-22T06:13:31.943Z,102230.27
2019-04-22T06:16:01.855Z,102228.03
2019-04-22T06:18:33.327Z,102228.00
2019-04-22T06:21:07.115Z,102228.82
2019-04-22T06:23:35.918Z,102234.94
2019-04-22T06:26:09.883Z,102233.13
2019-04-22T06:30:57.450Z,102240.44
2019-04-22T06:33:20.280Z,102242.56
2019-04-22T06:35:50.398Z,102241.61
2019-04-22T06:40:46.799Z,102247.12
2019-04-22T06:45:57.065Z,102237.66
2019-04-22T06:48:15.341Z,102245.94
2019-04-22T06:53:02.557Z,102249.64
2019-04-22T06:55:47.090Z,102246.45
2019-04-22T06:57:58.184Z,102255.98
2019-04-22T07:00:30.597Z,102246.16
2019-04-22T07:03:18.978Z,102251.26
2019-04-22T07:05:28.066Z,102242.72
2019-04-22T07:08:02.724Z,102242.12
2019-04-22T07:10:28.652Z,102251.21
2019-04-22T07:12:48.716Z,102253.73
2019-04-22T07:15:24.203Z,102260.63
2019-04-22T07:17:51.711Z,102258.69
2019-04-22T07:20:14.100Z,102205.59
2019-04-22T07:22:40.363Z,102259.70
2019-04-22T07:25:06.278Z,102256.43
2019-04-22T07:27:34.755Z,102251.36
2019-04-22T07:30:08.589Z,102255.18
2019-04-22T07:32:53.559Z,102260.27
2019-04-22T07:34:59.323Z,102262.73
2019-04-22T07:39:55.172Z,102272.91
2019-04-22T07:42:24.486Z,102272.68
2019-04-22T07:44:53.190Z,102272.44
2019-04-22T07:49:43.777Z,102281.23
2019-04-22T07:52:09.738Z,102275.71
2019-04-22T07:54:43.151Z,102280.36
2019-04-22T07:57:17.961Z,102288.55
2019-04-22T07:59:35.284Z,102283.01
2019-04-22T08:02:02.009Z,102284.55
2019-04-22T08:04:50.068Z,102282.50
2019-04-22T08:07:08.528Z,102284.00
2019-04-22T08:09:35.634Z,102282.87
2019-04-22T08:11:53.838Z,102275.89
2019-04-22T08:14:29.990Z,102281.33
2019-04-22T08:17:01.555Z,102290.34
2019-04-22T08:19:20.341Z,102286.48
2019-04-22T08:21:53.209Z,102283.48
2019-04-22T08:24:18.070Z,102291.64
2019-04-22T08:26:49.910Z,102297.09
2019-04-22T08:29:21.639Z,102304.85
2019-04-22T08:31:40.080Z,102302.36
2019-04-22T08:34:06.324Z,102305.67
2019-04-22T08:36:32.357Z,102305.00
2019-04-22T08:39:03.833Z,102309.69
2019-04-22T08:41:33.193Z,102305.95
2019-04-22T08:46:33.245Z,102293.02
2019-04-22T08:53:56.260Z,102292.56
2019-04-22T08:58:50.700Z,102288.23
2019-04-22T09:01:11.279Z,102290.31
2019-04-22T09:03:40.104Z,102287.45
2019-04-22T09:06:15.712Z,102290.39
2019-04-22T09:11:04.656Z,102294.92
2019-04-22T09:13:35.631Z,102294.26
2019-04-22T09:15:55.531Z,102298.05
2019-04-22T09:18:29.815Z,102302.32
2019-04-22T09:20:57.223Z,102290.09
2019-04-22T09:23:30.215Z,102296.01
2019-04-22T09:25:51.095Z,102293.04
2019-04-22T09:28:15.127Z,102296.77
2019-04-22T09:30:56.890Z,102291.09
2019-04-22T09:35:56.994Z,102299.89
2019-04-22T09:38:25.381Z,102298.44
2019-04-22T09:40:39.049Z,102297.12
2019-04-22T09:43:13.121Z,102295.16
2019-04-22T09:45:37.816Z,102299.23
2019-04-22T09:48:08.802Z,102292.59
2019-04-22T09:50:38.467Z,102279.91
2019-04-22T09:53:03.593Z,102281.31
2019-04-22T09:55:22.730Z,102279.33
2019-04-22T09:58:00.084Z,102288.03
2019-04-22T10:00:25.338Z,102292.44
2019-04-22T10:02:55.376Z,102283.77
2019-04-22T10:05:20.831Z,102286.26
2019-04-22T10:07:50.555Z,102282.16
2019-04-22T10:10:15.552Z,102287.45
2019-04-22T10:15:07.893Z,102285.88
2019-04-22T10:17:37.990Z,102287.59
2019-04-22T10:20:07.205Z,102292.81
2019-04-22T10:27:26.241Z,102309.80
2019-04-22T10:32:27.103Z,102303.83
2019-04-22T10:34:44.551Z,102311.48
2019-04-22T10:37:10.971Z,102301.63
2019-04-22T10:39:43.227Z,102304.02
2019-04-22T10:42:02.894Z,102304.48
2019-04-22T10:44:29.009Z,102310.04
2019-04-22T10:46:56.089Z,102306.86
2019-04-22T10:49:22.423Z,102311.61
2019-04-22T10:51:48.683Z,102320.31
2019-04-22T10:54:15.671Z,102320.31
2019-04-22T10:56:43.118Z,102323.80
2019-04-22T10:59:09.132Z,102316.36
2019-04-22T11:01:38.387Z,102317.00
2019-04-22T11:04:03.494Z,102320.25
2019-04-22T11:06:29.566Z,102313.22
2019-04-22T11:08:59.813Z,102313.62
2019-04-22T11:11:32.568Z,102319.94
2019-04-22T11:13:51.898Z,102313.61
2019-04-22T11:16:19.269Z,102325.53
2019-04-22T11:18:45.480Z,102309.09
2019-04-22T11:21:11.629Z,102305.57
2019-04-22T11:23:38.662Z,102304.77
2019-04-22T11:26:05.911Z,102303.81
2019-04-22T11:28:32.042Z,102302.36
2019-04-22T11:30:58.734Z,102290.50
2019-04-22T11:33:25.100Z,102295.55
2019-04-22T11:35:52.114Z,102298.36
2019-04-22T11:38:19.085Z,102303.23
2019-04-22T11:40:50.017Z,102300.11
2019-04-22T11:43:14.366Z,102293.47
2019-04-22T11:45:41.620Z,102303.09
2019-04-22T11:48:09.050Z,102300.19
2019-04-22T11:50:35.712Z,102291.44
2019-04-22T11:53:02.734Z,102280.21
2019-04-22T11:55:29.014Z,102288.41
2019-04-22T11:57:56.205Z,102294.28
2019-04-22T12:00:25.069Z,102297.73
2019-04-22T12:02:51.278Z,102309.29
2019-04-22T12:05:17.501Z,102308.82
2019-04-22T12:07:44.630Z,102307.30
2019-04-22T12:10:22.869Z,102295.95
2019-04-22T12:12:39.716Z,102297.45
2019-04-22T12:15:06.937Z,102301.16
2019-04-22T12:17:34.306Z,102307.89
2019-04-22T12:20:03.193Z,102301.77
2019-04-22T12:22:29.232Z,102303.09
2019-04-22T12:24:56.570Z,102290.34
2019-04-22T12:27:24.413Z,102285.95
2019-04-22T12:29:51.179Z,102294.25
2019-04-22T12:32:17.767Z,102291.06
2019-04-22T12:34:43.779Z,102295.98
2019-04-22T12:37:09.754Z,102283.30
2019-04-22T12:39:35.784Z,102280.90
2019-04-22T12:42:02.664Z,102280.47
2019-04-22T12:44:28.622Z,102250.81
2019-04-22T12:46:54.618Z,102273.07
2019-04-22T12:49:20.474Z,102275.00
2019-04-22T12:51:47.376Z,102278.77
2019-04-22T12:54:15.096Z,102281.87
2019-04-22T12:56:41.936Z,102277.92
2019-04-22T12:59:07.931Z,102284.50
2019-04-22T13:01:35.100Z,102276.97
2019-04-22T13:04:05.816Z,102281.50
2019-04-22T13:06:29.993Z,102289.23
2019-04-22T13:08:56.577Z,102282.34
2019-04-22T13:11:28.799Z,102282.00
2019-04-22T13:13:51.180Z,102279.95
2019-04-22T13:16:17.478Z,102258.07
2019-04-22T13:18:49.964Z,102293.81
2019-04-22T13:21:11.227Z,102258.78
2019-04-22T13:23:37.194Z,102292.36
2019-04-22T13:26:03.360Z,102287.55
2019-04-22T13:28:29.355Z,102289.75
2019-04-22T13:30:58.431Z,102289.88
2019-04-22T13:33:23.368Z,102293.44
2019-04-22T13:35:49.854Z,102301.98
2019-04-22T13:38:17.372Z,102304.80
2019-04-22T13:40:59.265Z,102300.06
2019-04-22T13:43:11.301Z,102298.89
2019-04-22T13:45:38.607Z,102300.81
2019-04-22T13:48:22.069Z,102298.70
2019-04-22T13:51:15.102Z,102296.52
2019-04-22T13:56:07.614Z,102300.59
2019-04-22T13:58:12.160Z,102298.45
2019-04-22T14:00:34.417Z,102300.23
2019-04-22T14:03:20.342Z,102304.27
2019-04-22T14:05:58.411Z,102304.30
2019-04-22T14:08:24.987Z,102309.23
2019-04-22T14:10:52.326Z,102300.84
2019-04-22T14:13:19.625Z,102310.27
2019-04-22T14:15:46.759Z,102310.00
2019-04-22T14:18:12.954Z,102314.27
2019-04-22T14:20:40.715Z,102312.88
2019-04-22T14:23:09.824Z,102320.27
2019-04-22T14:25:46.219Z,102311.98
2019-04-22T14:28:11.831Z,102306.76
2019-04-22T14:30:34.765Z,102307.34
2019-04-22T14:33:02.600Z,102315.09
2019-04-22T14:35:29.140Z,102309.47
2019-04-22T14:37:56.437Z,102309.62
2019-04-22T14:40:24.411Z,102310.23
2019-04-22T14:43:05.936Z,102317.03
2019-04-22T14:45:50.677Z,102308.25
2019-04-22T14:48:11.131Z,102311.92
2019-04-22T14:50:38.965Z,102311.11
2019-04-22T14:53:05.373Z,102310.77
2019-04-22T14:55:17.509Z,102311.73
2019-04-22T14:57:40.379Z,102307.52
2019-04-22T15:00:09.505Z,102305.65
2019-04-22T15:02:35.482Z,102300.87
2019-04-22T15:05:01.579Z,102300.03
2019-04-22T15:07:28.705Z,102299.54
2019-04-22T15:09:55.717Z,102304.03
2019-04-22T15:12:31.128Z,102303.72
2019-04-22T15:14:49.375Z,102303.72
2019-04-22T15:17:20.829Z,102308.67
2019-04-22T15:19:49.663Z,102309.18
2019-04-22T15:22:16.677Z,102307.63
2019-04-22T15:24:42.712Z,102311.23
2019-04-22T15:27:08.889Z,102314.42
2019-04-22T15:29:35.564Z,102318.16
2019-04-22T15:32:01.419Z,102315.63
2019-04-22T15:34:28.304Z,102312.17
2019-04-22T15:36:54.228Z,102316.40
2019-04-22T15:39:20.794Z,102317.42
2019-04-22T15:41:57.947Z,102314.30
2019-04-22T15:44:15.444Z,102318.75
2019-04-22T15:46:42.526Z,102318.02
2019-04-22T15:49:09.891Z,102321.13
2019-04-22T15:51:36.423Z,102319.45
2019-04-22T15:54:03.594Z,102319.45
2019-04-22T15:56:30.653Z,102318.63
2019-04-22T15:58:57.786Z,102320.64
2019-04-22T16:01:28.823Z,102315.17
2019-04-22T16:03:52.465Z,102317.13
2019-04-22T16:06:19.669Z,102319.95
2019-04-22T16:08:47.753Z,102313.95
2019-04-22T16:11:14.078Z,102313.77
2019-04-22T16:13:40.198Z,102317.05
2019-04-22T16:16:06.925Z,102319.52
2019-04-22T16:18:33.109Z,102317.45
2019-04-22T16:21:00.228Z,102311.30
2019-04-22T16:23:34.210Z,102313.16
2019-04-22T16:26:18.342Z,102313.66
2019-04-22T16:28:45.192Z,102311.59
2019-04-22T16:31:11.350Z,102314.22
2019-04-22T16:33:39.872Z,102320.64
2019-04-22T16:36:06.838Z,102309.84
2019-04-22T16:38:35.197Z,102321.23
2019-04-22T16:41:02.855Z,102316.66
2019-04-22T16:43:28.986Z,102312.80
2019-04-22T16:45:55.866Z,102310.28
2019-04-22T16:48:22.120Z,102319.76
2019-04-22T16:50:50.597Z,102315.16
2019-04-22T16:53:16.874Z,102309.73
2019-04-22T16:55:44.700Z,102324.48
2019-04-22T16:58:12.557Z,102326.01
2019-04-22T17:00:38.806Z,102327.52
2019-04-22T17:03:24.651Z,102322.72
2019-04-22T17:06:01.399Z,102325.52
2019-04-22T17:08:28.556Z,102322.65
2019-04-22T17:10:55.775Z,102325.92
2019-04-22T17:13:25.372Z,102323.45
2019-04-22T17:15:51.345Z,102320.52
2019-04-22T17:18:17.378Z,102321.66
2019-04-22T17:20:44.561Z,102319.53
2019-04-22T17:23:11.602Z,102325.39
2019-04-22T17:25:38.430Z,102323.30
2019-04-22T17:28:05.701Z,102320.41
2019-04-22T17:30:33.105Z,102322.87
2019-04-22T17:32:59.175Z,102322.55
2019-04-22T17:35:26.177Z,102320.09
2019-04-22T17:38:04.223Z,102320.66
2019-04-22T17:40:38.651Z,102322.03
2019-04-22T17:43:15.292Z,102318.13
2019-04-22T17:45:53.961Z,102327.99
2019-04-22T17:48:27.589Z,102321.87
2019-04-22T17:51:03.092Z,102322.36
2019-04-22T17:53:26.259Z,102314.94
2019-04-22T17:56:10.643Z,102314.13
2019-04-22T17:58:21.090Z,102308.45
2019-04-22T18:00:36.338Z,102312.03
2019-04-22T18:03:05.692Z,102317.91
2019-04-22T18:05:31.978Z,102307.95
2019-04-22T18:08:09.751Z,102312.50
2019-04-22T18:10:39.274Z,102324.45
2019-04-22T18:13:15.764Z,102313.94
2019-04-22T18:15:30.753Z,102320.13
2019-04-22T18:18:09.136Z,102313.05
2019-04-22T18:20:25.507Z,102313.12
2019-04-22T18:22:45.963Z,102318.95
2019-04-22T18:25:17.652Z,102316.78
2019-04-22T18:27:53.955Z,102315.11
2019-04-22T18:30:17.027Z,102316.08
2019-04-22T18:32:47.143Z,102306.52
2019-04-22T18:35:11.516Z,102302.13
2019-04-22T18:37:42.462Z,102307.00
2019-04-22T18:40:08.567Z,102315.92
2019-04-22T18:42:31.669Z,102317.25
2019-04-22T18:45:24.218Z,102322.19
2019-04-22T18:47:28.845Z,102320.49
2019-04-22T18:49:56.639Z,102329.89
2019-04-22T18:52:42.730Z,102333.02
2019-04-22T18:55:17.663Z,102326.89
2019-04-22T18:58:02.763Z,102334.38
2019-04-22T19:00:21.131Z,102331.77
2019-04-22T19:02:54.033Z,102341.09
2019-04-22T19:05:27.649Z,102334.48
2019-04-22T19:08:13.688Z,102336.77
2019-04-22T19:10:44.991Z,102339.05
2019-04-22T19:13:31.511Z,102340.41
2019-04-22T19:15:33.595Z,102334.31
2019-04-22T19:18:01.893Z,102330.84
2019-04-22T19:20:35.834Z,102334.48
2019-04-22T19:22:58.944Z,102338.52
2019-04-22T19:25:17.305Z,102338.63
2019-04-22T19:27:46.238Z,102338.18
2019-04-22T19:30:16.352Z,102336.03
2019-04-22T19:32:43.071Z,102330.38
2019-04-22T19:35:11.713Z,102329.15
2019-04-22T19:37:39.977Z,102324.78
2019-04-22T19:40:30.696Z,102328.86
2019-04-22T19:42:49.451Z,102328.95
2019-04-22T19:45:01.104Z,102334.77
2019-04-22T19:47:38.730Z,102327.34
2019-04-22T19:50:09.866Z,102327.45
2019-04-22T19:52:28.721Z,102329.79
2019-04-22T19:54:55.032Z,102335.59
2019-04-22T19:57:22.213Z,102335.19
2019-04-22T19:59:51.509Z,102339.19
2019-04-22T20:02:24.954Z,102333.91
2019-04-22T20:05:07.701Z,102328.16
2019-04-22T20:07:28.104Z,102326.45
2019-04-22T20:09:57.229Z,102329.14
2019-04-22T20:12:27.073Z,102329.61
2019-04-22T20:14:49.601Z,102327.45
2019-04-22T20:17:24.475Z,102323.56
2019-04-22T20:22:14.507Z,102332.05
2019-04-22T20:24:28.388Z,102331.22
2019-04-22T20:27:13.636Z,102330.36
2019-04-22T20:29:41.823Z,102330.36
2019-04-22T20:32:05.371Z,102323.34
2019-04-22T20:34:41.185Z,102326.08
2019-04-22T20:37:12.326Z,102324.37
2019-04-22T20:39:33.507Z,102323.48
2019-04-22T20:42:05.643Z,102318.63
2019-04-22T20:44:32.275Z,102315.53
2019-04-22T20:46:54.259Z,102319.50
2019-04-22T20:49:25.623Z,102321.27
2019-04-22T20:51:58.838Z,102315.15
2019-04-22T20:54:17.676Z,102316.55
2019-04-22T20:56:37.253Z,102317.48
2019-04-22T20:59:16.309Z,102320.63
2019-04-22T21:01:41.499Z,102321.59
2019-04-22T21:03:56.405Z,102324.29
2019-04-22T21:06:38.107Z,102315.07
2019-04-22T21:09:10.189Z,102319.48
2019-04-22T21:11:30.116Z,102316.86
2019-04-22T21:13:55.967Z,102312.47
2019-04-22T21:16:26.786Z,102316.45
2019-04-22T21:18:46.056Z,102320.86
2019-04-22T21:21:25.901Z,102318.70
2019-04-22T21:23:43.159Z,102327.55
2019-04-22T21:26:13.772Z,102329.84
2019-04-22T21:28:44.512Z,102334.33
2019-04-22T21:31:21.322Z,102332.20
2019-04-22T21:33:42.808Z,102330.08
2019-04-22T21:36:20.622Z,102329.22
2019-04-22T21:38:40.382Z,102333.20
2019-04-22T21:41:04.969Z,102330.96
2019-04-22T21:43:38.593Z,102330.11
2019-04-22T21:46:04.132Z,102323.91
2019-04-22T21:48:42.719Z,102324.84
2019-04-22T21:50:59.811Z,102316.00
2019-04-22T21:53:33.319Z,102321.77
2019-04-22T21:56:09.999Z,102325.32
2019-04-22T21:58:20.357Z,102318.80
2019-04-22T22:01:15.129Z,102323.75
2019-04-22T22:03:38.469Z,102314.50
2019-04-22T22:05:56.951Z,102315.36
2019-04-22T22:08:35.153Z,102306.59
2019-04-22T22:10:57.938Z,102307.91
2019-04-22T22:13:31.956Z,102315.38
2019-04-22T22:15:52.091Z,102310.55
2019-04-22T22:18:20.026Z,102305.30
2019-04-22T22:21:12.931Z,102304.00
2019-04-22T22:23:28.031Z,102304.45
2019-04-22T22:25:46.788Z,102310.63
2019-04-22T22:28:37.904Z,102308.45
2019-04-22T22:30:58.170Z,102305.36
2019-04-22T22:33:10.979Z,102301.52
2019-04-22T22:35:36.079Z,102305.17
2019-04-22T22:38:03.023Z,102299.48
2019-04-22T22:40:19.831Z,102299.02
2019-04-22T22:42:45.637Z,102298.55
2019-04-22T22:45:20.234Z,102298.53
2019-04-22T22:48:03.862Z,102300.27
2019-04-22T22:50:27.475Z,102294.13
2019-04-22T22:55:21.987Z,102293.22
2019-04-22T22:57:56.440Z,102294.10
2019-04-22T23:00:16.258Z,102280.45
2019-04-22T23:03:03.536Z,102288.38
2019-04-22T23:05:21.785Z,102295.91
2019-04-22T23:07:47.812Z,102295.91
2019-04-22T23:10:07.964Z,102290.64
2019-04-22T23:12:55.615Z,102285.80
2019-04-22T23:15:06.115Z,102282.30
2019-04-22T23:17:16.939Z,102274.83
2019-04-22T23:19:44.724Z,102281.03
2019-04-22T23:22:20.782Z,102277.06
2019-04-22T23:25:03.222Z,102277.50
2019-04-22T23:27:42.126Z,102277.09
2019-04-22T23:30:21.706Z,102281.52
2019-04-22T23:32:57.990Z,102282.86
2019-04-22T23:35:29.367Z,102278.94
2019-04-22T23:38:01.343Z,102269.70
2019-04-22T23:40:29.835Z,102282.92
2019-04-22T23:42:58.706Z,102286.91
2019-04-22T23:45:27.456Z,102283.42
2019-04-22T23:47:43.549Z,102284.77
2019-04-22T23:50:21.606Z,102286.52
2019-04-22T23:52:50.865Z,102278.63
2019-04-22T23:55:14.705Z,102275.16
2019-04-22T23:57:48.791Z,102280.44
